<?xml version="1.0" encoding="UTF-8" standalone="no" ?>
<gpx xmlns="http://www.topografix.com/GPX/1/1" xmlns:xsi="http://www.w3.org/2001/XMLSchema-instance" xsi:schemaLocation="http://www.topografix.com/GPX/1/1 http://www.topografix.com/GPX/1/1/gpx.xsd" version="1.1" creator="VisuGPX - https://www.visugpx.com">
  <metadata>
    <name>Turquie_100points</name>
  </metadata>
  <trk>
    <name><![CDATA[Tour d'Europe: étape 550]]></name>
    <extensions>
      <line xmlns="http://www.topografix.com/GPX/gpx_style/0/2">
        <color>880088</color>
        <width>4</width>
      </line>
    </extensions>
    <trkseg>
      <trkpt lat="38.37549" lon="34.73477">
        <ele>1377.297427</ele>
        <time>2021-12-30T06:30:09.456Z</time>
      </trkpt>
      <trkpt lat="38.3752" lon="34.73436">
        <ele>1379.964961</ele>
        <time>2021-12-30T06:30:53.477Z</time>
      </trkpt>
      <trkpt lat="38.37295" lon="34.73362">
        <ele>1384.901504</ele>
        <time>2021-12-30T06:31:56.498Z</time>
      </trkpt>
      <trkpt lat="38.37086" lon="34.73262">
        <ele>1381.036356</ele>
        <time>2021-12-30T06:32:59.465Z</time>
      </trkpt>
      <trkpt lat="38.37022" lon="34.73508">
        <ele>1382.113501</ele>
        <time>2021-12-30T06:33:58.456Z</time>
      </trkpt>
      <trkpt lat="38.36778" lon="34.73572">
        <ele>1373.198456</ele>
        <time>2021-12-30T06:34:55.471Z</time>
      </trkpt>
      <trkpt lat="38.36526" lon="34.73645">
        <ele>1372.097084</ele>
        <time>2021-12-30T06:35:56.456Z</time>
      </trkpt>
      <trkpt lat="38.36318" lon="34.73706">
        <ele>1373.113159</ele>
        <time>2021-12-30T06:36:42.486Z</time>
      </trkpt>
      <trkpt lat="38.36082" lon="34.73775">
        <ele>1373.796291</ele>
        <time>2021-12-30T06:37:37.481Z</time>
      </trkpt>
      <trkpt lat="38.35868" lon="34.73841">
        <ele>1373.144516</ele>
        <time>2021-12-30T06:38:25.461Z</time>
      </trkpt>
      <trkpt lat="38.35657" lon="34.73916">
        <ele>1371.340853</ele>
        <time>2021-12-30T06:39:13.463Z</time>
      </trkpt>
      <trkpt lat="38.35451" lon="34.73957">
        <ele>1370.226352</ele>
        <time>2021-12-30T06:39:56.465Z</time>
      </trkpt>
      <trkpt lat="38.35256" lon="34.74011">
        <ele>1367.053128</ele>
        <time>2021-12-30T06:40:38.456Z</time>
      </trkpt>
      <trkpt lat="38.35054" lon="34.74073">
        <ele>1367.02358</ele>
        <time>2021-12-30T06:41:20.510Z</time>
      </trkpt>
      <trkpt lat="38.34851" lon="34.74135">
        <ele>1365.89142</ele>
        <time>2021-12-30T06:42:05.561Z</time>
      </trkpt>
      <trkpt lat="38.34654" lon="34.74198">
        <ele>1362.775418</ele>
        <time>2021-12-30T06:42:47.469Z</time>
      </trkpt>
      <trkpt lat="38.34448" lon="34.74262">
        <ele>1359.795576</ele>
        <time>2021-12-30T06:43:33.454Z</time>
      </trkpt>
      <trkpt lat="38.34248" lon="34.74325">
        <ele>1358.267839</ele>
        <time>2021-12-30T06:44:17.487Z</time>
      </trkpt>
      <trkpt lat="38.34028" lon="34.74395">
        <ele>1358.537847</ele>
        <time>2021-12-30T06:45:08.472Z</time>
      </trkpt>
      <trkpt lat="38.33801" lon="34.74463">
        <ele>1361.850906</ele>
        <time>2021-12-30T06:46:00.472Z</time>
      </trkpt>
      <trkpt lat="38.33602" lon="34.74522">
        <ele>1367.169285</ele>
        <time>2021-12-30T06:46:43.469Z</time>
      </trkpt>
      <trkpt lat="38.334" lon="34.74584">
        <ele>1365.116577</ele>
        <time>2021-12-30T06:47:28.485Z</time>
      </trkpt>
      <trkpt lat="38.33194" lon="34.74653">
        <ele>1359.823748</ele>
        <time>2021-12-30T06:48:13.465Z</time>
      </trkpt>
      <trkpt lat="38.3299" lon="34.74714">
        <ele>1360.076115</ele>
        <time>2021-12-30T06:48:57.473Z</time>
      </trkpt>
      <trkpt lat="38.32789" lon="34.74777">
        <ele>1358.380268</ele>
        <time>2021-12-30T06:49:39.460Z</time>
      </trkpt>
      <trkpt lat="38.32592" lon="34.7484">
        <ele>1356.265579</ele>
        <time>2021-12-30T06:50:22.479Z</time>
      </trkpt>
      <trkpt lat="38.3238" lon="34.74906">
        <ele>1355.343805</ele>
        <time>2021-12-30T06:51:09.474Z</time>
      </trkpt>
      <trkpt lat="38.32175" lon="34.74972">
        <ele>1354.87606</ele>
        <time>2021-12-30T06:51:55.466Z</time>
      </trkpt>
      <trkpt lat="38.31968" lon="34.75041">
        <ele>1354.51451</ele>
        <time>2021-12-30T06:52:41.485Z</time>
      </trkpt>
      <trkpt lat="38.31776" lon="34.75103">
        <ele>1354.122107</ele>
        <time>2021-12-30T06:53:23.477Z</time>
      </trkpt>
      <trkpt lat="38.31568" lon="34.75171">
        <ele>1353.245824</ele>
        <time>2021-12-30T06:54:10.446Z</time>
      </trkpt>
      <trkpt lat="38.31315" lon="34.75253">
        <ele>1355.776427</ele>
        <time>2021-12-30T06:55:13.473Z</time>
      </trkpt>
      <trkpt lat="38.3107" lon="34.75338">
        <ele>1357.242891</ele>
        <time>2021-12-30T06:56:16.499Z</time>
      </trkpt>
      <trkpt lat="38.3084" lon="34.75418">
        <ele>1358.35337</ele>
        <time>2021-12-30T06:57:19.506Z</time>
      </trkpt>
      <trkpt lat="38.30616" lon="34.75495">
        <ele>1359.206169</ele>
        <time>2021-12-30T06:58:22.470Z</time>
      </trkpt>
      <trkpt lat="38.30366" lon="34.75576">
        <ele>1359.1392</ele>
        <time>2021-12-30T06:59:25.471Z</time>
      </trkpt>
      <trkpt lat="38.30104" lon="34.75659">
        <ele>1358.277833</ele>
        <time>2021-12-30T07:00:28.483Z</time>
      </trkpt>
      <trkpt lat="38.2986" lon="34.75736">
        <ele>1356.396109</ele>
        <time>2021-12-30T07:01:27.465Z</time>
      </trkpt>
      <trkpt lat="38.29606" lon="34.75812">
        <ele>1351.524606</ele>
        <time>2021-12-30T07:02:27.465Z</time>
      </trkpt>
      <trkpt lat="38.29364" lon="34.75883">
        <ele>1349.854074</ele>
        <time>2021-12-30T07:03:23.451Z</time>
      </trkpt>
      <trkpt lat="38.29103" lon="34.75959">
        <ele>1347.60577</ele>
        <time>2021-12-30T07:04:26.507Z</time>
      </trkpt>
      <trkpt lat="38.28843" lon="34.76037">
        <ele>1347.493172</ele>
        <time>2021-12-30T07:05:29.471Z</time>
      </trkpt>
      <trkpt lat="38.28591" lon="34.76113">
        <ele>1346.44293</ele>
        <time>2021-12-30T07:06:32.470Z</time>
      </trkpt>
      <trkpt lat="38.28344" lon="34.7619">
        <ele>1345.974535</ele>
        <time>2021-12-30T07:07:35.483Z</time>
      </trkpt>
      <trkpt lat="38.2809" lon="34.76268">
        <ele>1346.260713</ele>
        <time>2021-12-30T07:08:38.465Z</time>
      </trkpt>
      <trkpt lat="38.27842" lon="34.76345">
        <ele>1348.374804</ele>
        <time>2021-12-30T07:09:44.491Z</time>
      </trkpt>
      <trkpt lat="38.27625" lon="34.76412">
        <ele>1347.663793</ele>
        <time>2021-12-30T07:10:47.465Z</time>
      </trkpt>
      <trkpt lat="38.2739" lon="34.76486">
        <ele>1348.132425</ele>
        <time>2021-12-30T07:11:50.470Z</time>
      </trkpt>
      <trkpt lat="38.27152" lon="34.76562">
        <ele>1347.095617</ele>
        <time>2021-12-30T07:12:53.471Z</time>
      </trkpt>
      <trkpt lat="38.26914" lon="34.76639">
        <ele>1348.197838</ele>
        <time>2021-12-30T07:13:56.488Z</time>
      </trkpt>
      <trkpt lat="38.26685" lon="34.7671">
        <ele>1349.575806</ele>
        <time>2021-12-30T07:14:59.495Z</time>
      </trkpt>
      <trkpt lat="38.26445" lon="34.76786">
        <ele>1351.307795</ele>
        <time>2021-12-30T07:16:02.455Z</time>
      </trkpt>
      <trkpt lat="38.26192" lon="34.76866">
        <ele>1347.900404</ele>
        <time>2021-12-30T07:17:02.472Z</time>
      </trkpt>
      <trkpt lat="38.2594" lon="34.76946">
        <ele>1347.478986</ele>
        <time>2021-12-30T07:18:03.481Z</time>
      </trkpt>
      <trkpt lat="38.25683" lon="34.77028">
        <ele>1348.694246</ele>
        <time>2021-12-30T07:19:06.472Z</time>
      </trkpt>
      <trkpt lat="38.25426" lon="34.77109">
        <ele>1346.54792</ele>
        <time>2021-12-30T07:20:09.520Z</time>
      </trkpt>
      <trkpt lat="38.25169" lon="34.77191">
        <ele>1345.377354</ele>
        <time>2021-12-30T07:21:12.478Z</time>
      </trkpt>
      <trkpt lat="38.24913" lon="34.77273">
        <ele>1345.363708</ele>
        <time>2021-12-30T07:22:14.456Z</time>
      </trkpt>
      <trkpt lat="38.24659" lon="34.77355">
        <ele>1346.297352</ele>
        <time>2021-12-30T07:23:17.484Z</time>
      </trkpt>
      <trkpt lat="38.24408" lon="34.77432">
        <ele>1344.901827</ele>
        <time>2021-12-30T07:24:19.472Z</time>
      </trkpt>
      <trkpt lat="38.24175" lon="34.7752">
        <ele>1345.686911</ele>
        <time>2021-12-30T07:25:22.473Z</time>
      </trkpt>
      <trkpt lat="38.23937" lon="34.77597">
        <ele>1347.256195</ele>
        <time>2021-12-30T07:26:26.479Z</time>
      </trkpt>
      <trkpt lat="38.23702" lon="34.77634">
        <ele>1343.420683</ele>
        <time>2021-12-30T07:27:22.461Z</time>
      </trkpt>
      <trkpt lat="38.2347" lon="34.77619">
        <ele>1342.060679</ele>
        <time>2021-12-30T07:28:14.473Z</time>
      </trkpt>
      <trkpt lat="38.23225" lon="34.77616">
        <ele>1340.467838</ele>
        <time>2021-12-30T07:29:16.474Z</time>
      </trkpt>
      <trkpt lat="38.22986" lon="34.77589">
        <ele>1341.659074</ele>
        <time>2021-12-30T07:30:18.472Z</time>
      </trkpt>
      <trkpt lat="38.22786" lon="34.77556">
        <ele>1343.699528</ele>
        <time>2021-12-30T07:31:37.483Z</time>
      </trkpt>
      <trkpt lat="38.22652" lon="34.77759">
        <ele>1341.008484</ele>
        <time>2021-12-30T07:32:41.480Z</time>
      </trkpt>
      <trkpt lat="38.2245" lon="34.77916">
        <ele>1338.810239</ele>
        <time>2021-12-30T07:33:44.537Z</time>
      </trkpt>
      <trkpt lat="38.2224" lon="34.78019">
        <ele>1342.194474</ele>
        <time>2021-12-30T07:34:47.466Z</time>
      </trkpt>
      <trkpt lat="38.22008" lon="34.78092">
        <ele>1342.471574</ele>
        <time>2021-12-30T07:35:50.491Z</time>
      </trkpt>
      <trkpt lat="38.21792" lon="34.78161">
        <ele>1343.586005</ele>
        <time>2021-12-30T07:36:54.469Z</time>
      </trkpt>
      <trkpt lat="38.21591" lon="34.78233">
        <ele>1345.685134</ele>
        <time>2021-12-30T07:38:03.474Z</time>
      </trkpt>
      <trkpt lat="38.21384" lon="34.78313">
        <ele>1348.44453</ele>
        <time>2021-12-30T07:39:14.497Z</time>
      </trkpt>
      <trkpt lat="38.21184" lon="34.78381">
        <ele>1350.268693</ele>
        <time>2021-12-30T07:40:20.509Z</time>
      </trkpt>
      <trkpt lat="38.21072" lon="34.78376">
        <ele>1350.19685</ele>
        <time>2021-12-30T07:54:44.493Z</time>
      </trkpt>
      <trkpt lat="38.20894" lon="34.78474">
        <ele>1348.264849</ele>
        <time>2021-12-30T07:55:57.470Z</time>
      </trkpt>
      <trkpt lat="38.20675" lon="34.78544">
        <ele>1349.248847</ele>
        <time>2021-12-30T07:57:00.484Z</time>
      </trkpt>
      <trkpt lat="38.20455" lon="34.78607">
        <ele>1351.522373</ele>
        <time>2021-12-30T07:58:03.493Z</time>
      </trkpt>
      <trkpt lat="38.20246" lon="34.78663">
        <ele>1352.653472</ele>
        <time>2021-12-30T07:59:07.490Z</time>
      </trkpt>
      <trkpt lat="38.20021" lon="34.78746">
        <ele>1346.852687</ele>
        <time>2021-12-30T08:00:10.483Z</time>
      </trkpt>
      <trkpt lat="38.19791" lon="34.78815">
        <ele>1350.580068</ele>
        <time>2021-12-30T08:01:13.473Z</time>
      </trkpt>
      <trkpt lat="38.19562" lon="34.78881">
        <ele>1350.366404</ele>
        <time>2021-12-30T08:02:16.506Z</time>
      </trkpt>
      <trkpt lat="38.19326" lon="34.78899">
        <ele>1350.91873</ele>
        <time>2021-12-30T08:03:19.491Z</time>
      </trkpt>
      <trkpt lat="38.19089" lon="34.78915">
        <ele>1352.85306</ele>
        <time>2021-12-30T08:04:22.484Z</time>
      </trkpt>
      <trkpt lat="38.18851" lon="34.78929">
        <ele>1352.171194</ele>
        <time>2021-12-30T08:05:25.494Z</time>
      </trkpt>
      <trkpt lat="38.18624" lon="34.78942">
        <ele>1355.194253</ele>
        <time>2021-12-30T08:06:28.505Z</time>
      </trkpt>
      <trkpt lat="38.18382" lon="34.78961">
        <ele>1354.213011</ele>
        <time>2021-12-30T08:07:31.481Z</time>
      </trkpt>
      <trkpt lat="38.18144" lon="34.78978">
        <ele>1354.814489</ele>
        <time>2021-12-30T08:08:34.511Z</time>
      </trkpt>
      <trkpt lat="38.179" lon="34.78994">
        <ele>1356.153486</ele>
        <time>2021-12-30T08:09:40.488Z</time>
      </trkpt>
      <trkpt lat="38.17677" lon="34.79009">
        <ele>1357.940667</ele>
        <time>2021-12-30T08:10:43.488Z</time>
      </trkpt>
      <trkpt lat="38.17462" lon="34.79023">
        <ele>1359.033528</ele>
        <time>2021-12-30T08:11:46.492Z</time>
      </trkpt>
      <trkpt lat="38.1723" lon="34.79046">
        <ele>1358.181161</ele>
        <time>2021-12-30T08:12:49.485Z</time>
      </trkpt>
      <trkpt lat="38.16998" lon="34.7907">
        <ele>1359.193436</ele>
        <time>2021-12-30T08:13:52.498Z</time>
      </trkpt>
      <trkpt lat="38.16772" lon="34.79094">
        <ele>1361.529657</ele>
        <time>2021-12-30T08:14:55.493Z</time>
      </trkpt>
      <trkpt lat="38.16533" lon="34.79118">
        <ele>1362.564706</ele>
        <time>2021-12-30T08:15:58.500Z</time>
      </trkpt>
      <trkpt lat="38.16314" lon="34.7914">
        <ele>1365.588343</ele>
        <time>2021-12-30T08:17:01.478Z</time>
      </trkpt>
      <trkpt lat="38.16095" lon="34.79142">
        <ele>1368.711584</ele>
        <time>2021-12-30T08:18:05.510Z</time>
      </trkpt>
      <trkpt lat="38.15861" lon="34.79145">
        <ele>1370.283769</ele>
        <time>2021-12-30T08:19:08.534Z</time>
      </trkpt>
      <trkpt lat="38.15624" lon="34.79146">
        <ele>1372.445854</ele>
        <time>2021-12-30T08:20:04.499Z</time>
      </trkpt>
      <trkpt lat="38.15419" lon="34.79147">
        <ele>1370.810207</ele>
        <time>2021-12-30T08:20:47.509Z</time>
      </trkpt>
      <trkpt lat="38.15207" lon="34.79146">
        <ele>1365.291543</ele>
        <time>2021-12-30T08:21:29.511Z</time>
      </trkpt>
      <trkpt lat="38.1495" lon="34.79151">
        <ele>1366.331301</ele>
        <time>2021-12-30T08:22:30.499Z</time>
      </trkpt>
      <trkpt lat="38.14697" lon="34.79152">
        <ele>1369.66105</ele>
        <time>2021-12-30T08:23:32.483Z</time>
      </trkpt>
      <trkpt lat="38.14441" lon="34.79158">
        <ele>1370.196411</ele>
        <time>2021-12-30T08:24:34.498Z</time>
      </trkpt>
      <trkpt lat="38.14214" lon="34.79177">
        <ele>1370.698829</ele>
        <time>2021-12-30T08:25:34.518Z</time>
      </trkpt>
      <trkpt lat="38.14009" lon="34.79206">
        <ele>1369.331582</ele>
        <time>2021-12-30T08:26:17.494Z</time>
      </trkpt>
      <trkpt lat="38.13777" lon="34.79172">
        <ele>1364.670291</ele>
        <time>2021-12-30T08:27:10.501Z</time>
      </trkpt>
      <trkpt lat="38.1356" lon="34.79094">
        <ele>1364.500706</ele>
        <time>2021-12-30T08:28:13.499Z</time>
      </trkpt>
      <trkpt lat="38.1332" lon="34.79006">
        <ele>1368.445625</ele>
        <time>2021-12-30T08:29:12.558Z</time>
      </trkpt>
      <trkpt lat="38.13068" lon="34.78949">
        <ele>1368.622401</ele>
        <time>2021-12-30T08:30:14.508Z</time>
      </trkpt>
      <trkpt lat="38.12811" lon="34.78902">
        <ele>1367.592707</ele>
        <time>2021-12-30T08:31:16.498Z</time>
      </trkpt>
      <trkpt lat="38.1259" lon="34.78875">
        <ele>1365.888943</ele>
        <time>2021-12-30T08:32:05.500Z</time>
      </trkpt>
      <trkpt lat="38.12337" lon="34.78833">
        <ele>1366.417016</ele>
        <time>2021-12-30T08:33:04.510Z</time>
      </trkpt>
      <trkpt lat="38.12092" lon="34.78794">
        <ele>1367.755996</ele>
        <time>2021-12-30T08:34:07.499Z</time>
      </trkpt>
      <trkpt lat="38.11857" lon="34.78743">
        <ele>1369.533436</ele>
        <time>2021-12-30T08:35:07.529Z</time>
      </trkpt>
      <trkpt lat="38.11645" lon="34.78687">
        <ele>1369.296502</ele>
        <time>2021-12-30T08:35:53.508Z</time>
      </trkpt>
      <trkpt lat="38.11434" lon="34.78634">
        <ele>1372.610879</ele>
        <time>2021-12-30T08:36:38.515Z</time>
      </trkpt>
      <trkpt lat="38.11213" lon="34.78577">
        <ele>1372.595755</ele>
        <time>2021-12-30T08:37:27.504Z</time>
      </trkpt>
      <trkpt lat="38.11013" lon="34.78529">
        <ele>1372.103282</ele>
        <time>2021-12-30T08:38:09.541Z</time>
      </trkpt>
      <trkpt lat="38.10789" lon="34.78474">
        <ele>1371.02018</ele>
        <time>2021-12-30T08:39:00.535Z</time>
      </trkpt>
      <trkpt lat="38.10577" lon="34.78432">
        <ele>1371.633567</ele>
        <time>2021-12-30T08:40:06.508Z</time>
      </trkpt>
      <trkpt lat="38.10362" lon="34.78393">
        <ele>1371.976736</ele>
        <time>2021-12-30T08:41:11.507Z</time>
      </trkpt>
      <trkpt lat="38.10125" lon="34.78352">
        <ele>1369.536128</ele>
        <time>2021-12-30T08:42:05.524Z</time>
      </trkpt>
      <trkpt lat="38.09863" lon="34.78303">
        <ele>1367.624823</ele>
        <time>2021-12-30T08:43:08.530Z</time>
      </trkpt>
      <trkpt lat="38.09614" lon="34.78256">
        <ele>1368.662026</ele>
        <time>2021-12-30T08:44:11.509Z</time>
      </trkpt>
      <trkpt lat="38.0936" lon="34.78213">
        <ele>1367.407472</ele>
        <time>2021-12-30T08:45:13.503Z</time>
      </trkpt>
      <trkpt lat="38.0911" lon="34.7819">
        <ele>1370.113001</ele>
        <time>2021-12-30T08:46:11.507Z</time>
      </trkpt>
      <trkpt lat="38.08877" lon="34.78279">
        <ele>1376.94875</ele>
        <time>2021-12-30T08:47:15.502Z</time>
      </trkpt>
      <trkpt lat="38.08663" lon="34.78371">
        <ele>1379.928738</ele>
        <time>2021-12-30T08:48:25.506Z</time>
      </trkpt>
      <trkpt lat="38.08429" lon="34.78474">
        <ele>1367.18879</ele>
        <time>2021-12-30T08:48:52.510Z</time>
      </trkpt>
      <trkpt lat="38.08189" lon="34.78579">
        <ele>1360.319639</ele>
        <time>2021-12-30T08:49:28.518Z</time>
      </trkpt>
      <trkpt lat="38.07977" lon="34.78669">
        <ele>1369.707644</ele>
        <time>2021-12-30T08:50:33.505Z</time>
      </trkpt>
      <trkpt lat="38.07739" lon="34.78773">
        <ele>1372.222121</ele>
        <time>2021-12-30T08:51:44.500Z</time>
      </trkpt>
      <trkpt lat="38.0752" lon="34.78847">
        <ele>1370.400749</ele>
        <time>2021-12-30T08:52:35.515Z</time>
      </trkpt>
      <trkpt lat="38.07295" lon="34.78911">
        <ele>1374.557034</ele>
        <time>2021-12-30T08:53:38.501Z</time>
      </trkpt>
      <trkpt lat="38.07081" lon="34.78781">
        <ele>1367.61761</ele>
        <time>2021-12-30T08:54:31.533Z</time>
      </trkpt>
      <trkpt lat="38.06913" lon="34.78514">
        <ele>1359.072088</ele>
        <time>2021-12-30T08:55:07.520Z</time>
      </trkpt>
      <trkpt lat="38.06775" lon="34.78282">
        <ele>1357.624866</ele>
        <time>2021-12-30T08:55:49.521Z</time>
      </trkpt>
      <trkpt lat="38.06637" lon="34.78041">
        <ele>1356.344972</ele>
        <time>2021-12-30T08:56:31.535Z</time>
      </trkpt>
      <trkpt lat="38.06509" lon="34.77822">
        <ele>1354.438228</ele>
        <time>2021-12-30T08:57:13.566Z</time>
      </trkpt>
      <trkpt lat="38.06356" lon="34.77604">
        <ele>1351.600233</ele>
        <time>2021-12-30T08:57:55.516Z</time>
      </trkpt>
      <trkpt lat="38.06184" lon="34.77395">
        <ele>1348.000691</ele>
        <time>2021-12-30T08:58:37.527Z</time>
      </trkpt>
      <trkpt lat="38.06005" lon="34.77204">
        <ele>1346.105219</ele>
        <time>2021-12-30T08:59:19.543Z</time>
      </trkpt>
      <trkpt lat="38.0583" lon="34.77021">
        <ele>1347.66106</ele>
        <time>2021-12-30T09:00:01.521Z</time>
      </trkpt>
      <trkpt lat="38.05658" lon="34.7684">
        <ele>1346.998321</ele>
        <time>2021-12-30T09:00:43.511Z</time>
      </trkpt>
      <trkpt lat="38.05483" lon="34.76655">
        <ele>1345.555674</ele>
        <time>2021-12-30T09:01:25.511Z</time>
      </trkpt>
      <trkpt lat="38.05311" lon="34.76474">
        <ele>1345.706979</ele>
        <time>2021-12-30T09:02:07.514Z</time>
      </trkpt>
      <trkpt lat="38.05141" lon="34.76312">
        <ele>1345.517234</ele>
        <time>2021-12-30T09:02:49.499Z</time>
      </trkpt>
      <trkpt lat="38.04956" lon="34.76195">
        <ele>1344.745747</ele>
        <time>2021-12-30T09:03:32.522Z</time>
      </trkpt>
      <trkpt lat="38.04757" lon="34.76091">
        <ele>1345.570652</ele>
        <time>2021-12-30T09:04:14.529Z</time>
      </trkpt>
      <trkpt lat="38.04562" lon="34.75956">
        <ele>1346.707563</ele>
        <time>2021-12-30T09:04:56.517Z</time>
      </trkpt>
      <trkpt lat="38.04392" lon="34.75777">
        <ele>1349.227445</ele>
        <time>2021-12-30T09:05:39.529Z</time>
      </trkpt>
      <trkpt lat="38.04257" lon="34.75572">
        <ele>1353.024381</ele>
        <time>2021-12-30T09:06:21.526Z</time>
      </trkpt>
      <trkpt lat="38.04119" lon="34.75372">
        <ele>1352.367105</ele>
        <time>2021-12-30T09:07:05.502Z</time>
      </trkpt>
      <trkpt lat="38.0396" lon="34.75167">
        <ele>1352.137561</ele>
        <time>2021-12-30T09:07:53.518Z</time>
      </trkpt>
      <trkpt lat="38.03776" lon="34.7498">
        <ele>1355.03614</ele>
        <time>2021-12-30T09:08:48.520Z</time>
      </trkpt>
      <trkpt lat="38.03594" lon="34.74834">
        <ele>1350.47592</ele>
        <time>2021-12-30T09:09:31.516Z</time>
      </trkpt>
      <trkpt lat="38.03396" lon="34.74701">
        <ele>1346.196909</ele>
        <time>2021-12-30T09:10:13.515Z</time>
      </trkpt>
      <trkpt lat="38.03193" lon="34.74592">
        <ele>1344.222339</ele>
        <time>2021-12-30T09:11:00.524Z</time>
      </trkpt>
      <trkpt lat="38.02978" lon="34.74523">
        <ele>1341.57909</ele>
        <time>2021-12-30T09:11:47.512Z</time>
      </trkpt>
      <trkpt lat="38.02739" lon="34.74463">
        <ele>1341.403797</ele>
        <time>2021-12-30T09:12:29.511Z</time>
      </trkpt>
      <trkpt lat="38.02502" lon="34.74414">
        <ele>1340.129716</ele>
        <time>2021-12-30T09:13:11.527Z</time>
      </trkpt>
      <trkpt lat="38.02282" lon="34.74364">
        <ele>1337.200453</ele>
        <time>2021-12-30T09:13:53.530Z</time>
      </trkpt>
      <trkpt lat="38.02062" lon="34.74317">
        <ele>1333.024704</ele>
        <time>2021-12-30T09:14:35.523Z</time>
      </trkpt>
      <trkpt lat="38.01831" lon="34.74244">
        <ele>1328.777897</ele>
        <time>2021-12-30T09:15:17.529Z</time>
      </trkpt>
      <trkpt lat="38.01599" lon="34.74155">
        <ele>1332.103744</ele>
        <time>2021-12-30T09:15:59.537Z</time>
      </trkpt>
      <trkpt lat="38.0134" lon="34.74022">
        <ele>1327.035516</ele>
        <time>2021-12-30T09:16:41.519Z</time>
      </trkpt>
      <trkpt lat="38.01034" lon="34.73829">
        <ele>1320.318143</ele>
        <time>2021-12-30T09:17:23.523Z</time>
      </trkpt>
      <trkpt lat="38.00798" lon="34.73673">
        <ele>1315.065444</ele>
        <time>2021-12-30T09:17:53.523Z</time>
      </trkpt>
      <trkpt lat="38.00535" lon="34.73493">
        <ele>1311.272828</ele>
        <time>2021-12-30T09:18:34.515Z</time>
      </trkpt>
      <trkpt lat="38.00341" lon="34.73378">
        <ele>1310.551813</ele>
        <time>2021-12-30T09:19:16.516Z</time>
      </trkpt>
      <trkpt lat="38.00143" lon="34.73269">
        <ele>1309.432552</ele>
        <time>2021-12-30T09:19:58.524Z</time>
      </trkpt>
      <trkpt lat="37.99934" lon="34.73152">
        <ele>1304.417492</ele>
        <time>2021-12-30T09:20:40.562Z</time>
      </trkpt>
      <trkpt lat="37.9971" lon="34.73034">
        <ele>1302.529248</ele>
        <time>2021-12-30T09:21:22.518Z</time>
      </trkpt>
      <trkpt lat="37.99415" lon="34.72874">
        <ele>1296.420979</ele>
        <time>2021-12-30T09:22:04.530Z</time>
      </trkpt>
      <trkpt lat="37.99162" lon="34.72734">
        <ele>1294.63023</ele>
        <time>2021-12-30T09:22:46.501Z</time>
      </trkpt>
      <trkpt lat="37.98957" lon="34.72595">
        <ele>1294.551943</ele>
        <time>2021-12-30T09:23:44.569Z</time>
      </trkpt>
      <trkpt lat="37.98866" lon="34.72321">
        <ele>1290.426187</ele>
        <time>2021-12-30T09:24:29.511Z</time>
      </trkpt>
      <trkpt lat="37.98764" lon="34.72073">
        <ele>1287.506993</ele>
        <time>2021-12-30T09:25:11.514Z</time>
      </trkpt>
      <trkpt lat="37.98641" lon="34.71798">
        <ele>1281.223231</ele>
        <time>2021-12-30T09:25:53.520Z</time>
      </trkpt>
      <trkpt lat="37.98491" lon="34.71523">
        <ele>1275.949328</ele>
        <time>2021-12-30T09:26:35.531Z</time>
      </trkpt>
      <trkpt lat="37.98594" lon="34.71306">
        <ele>1273.487526</ele>
        <time>2021-12-30T09:27:21.524Z</time>
      </trkpt>
      <trkpt lat="37.98727" lon="34.71128">
        <ele>1269.245591</ele>
        <time>2021-12-30T09:28:19.524Z</time>
      </trkpt>
      <trkpt lat="37.98717" lon="34.70872">
        <ele>1263.33466</ele>
        <time>2021-12-30T09:29:20.513Z</time>
      </trkpt>
      <trkpt lat="37.98561" lon="34.70626">
        <ele>1258.179131</ele>
        <time>2021-12-30T09:30:16.558Z</time>
      </trkpt>
      <trkpt lat="37.98418" lon="34.70394">
        <ele>1255.952473</ele>
        <time>2021-12-30T09:31:01.528Z</time>
      </trkpt>
      <trkpt lat="37.98256" lon="34.70206">
        <ele>1257.149641</ele>
        <time>2021-12-30T09:32:28.521Z</time>
      </trkpt>
      <trkpt lat="37.98097" lon="34.70004">
        <ele>1252.528283</ele>
        <time>2021-12-30T09:33:11.525Z</time>
      </trkpt>
      <trkpt lat="37.97987" lon="34.69751">
        <ele>1250.298334</ele>
        <time>2021-12-30T09:33:58.516Z</time>
      </trkpt>
      <trkpt lat="37.97863" lon="34.69535">
        <ele>1250.639392</ele>
        <time>2021-12-30T09:34:43.505Z</time>
      </trkpt>
      <trkpt lat="37.97838" lon="34.69244">
        <ele>1247.76901</ele>
        <time>2021-12-30T09:35:30.520Z</time>
      </trkpt>
      <trkpt lat="37.97732" lon="34.68978">
        <ele>1256.922821</ele>
        <time>2021-12-30T09:36:32.513Z</time>
      </trkpt>
      <trkpt lat="37.97663" lon="34.68736">
        <ele>1257.340613</ele>
        <time>2021-12-30T09:37:38.515Z</time>
      </trkpt>
      <trkpt lat="37.97464" lon="34.68566">
        <ele>1264.386207</ele>
        <time>2021-12-30T09:38:35.515Z</time>
      </trkpt>
      <trkpt lat="37.97266" lon="34.6839">
        <ele>1266.127688</ele>
        <time>2021-12-30T09:43:51.557Z</time>
      </trkpt>
      <trkpt lat="37.9719" lon="34.68329">
        <ele>1275.231932</ele>
        <time>2021-12-30T09:58:53.525Z</time>
      </trkpt>
      <trkpt lat="37.97062" lon="34.6817">
        <ele>1268.598666</ele>
        <time>2021-12-30T10:00:20.521Z</time>
      </trkpt>
      <trkpt lat="37.97101" lon="34.67935">
        <ele>1273.305309</ele>
        <time>2021-12-30T10:02:26.523Z</time>
      </trkpt>
      <trkpt lat="37.97136" lon="34.67812">
        <ele>1273.305309</ele>
        <time>2021-12-30T10:05:14.018Z</time>
      </trkpt>
    </trkseg>
  </trk>
</gpx>